Weather at Northampton Airport

Public forecast

Using degrees Fahrenheit for public forecast. Weather courtesy of forecast.io.

Closest aviation weather report (METAR) to Northampton Airport

Closest report is Westover ARB/Metropolitan Airport, 8.7 nm (16.2 km) SSE. Retrieved 2021/01/20 11:56 UTC (15 minutes ago):

KCEF 201156Z 00000KT 10SM BKN080 OVC095 M03/M05 A2983 RMK AO2A SLP110 70001 T10281051 11004 21028 57016

Closest aviation forecast (TAF) to Northampton Airport

Forecast is more than 12 hours old.

Closest forecast is Westover ARB/Metropolitan Airport, 8.7 nm (16.2 km) SSE. Retrieved 2021/01/19 22:12 UTC (14 hours ago):

TAF TAF KCEF 192208Z 1922/2104 25009KT 9999 BKN050 BKN090 620503 510104 QNH2984INS BECMG 2014/2015 28012KT 9999 VCSH FEW020 BKN040 OVC060 610405 510104 QNH2981INS TEMPO 2015/2018 30012G18KT 4800 -SHSN OVC030 610306 TEMPO 2018/2022 30015G25KT 520005 BECMG 2021/2022 30010G15KT 9999 NSW SCT040 SCT070 510104 QNH2990INS TX02/2019Z TNM03/2012Z LAST NO AMDS AFT 2004 NEXT 2014